createdAt,value
2022-07-30T00:00:40.489Z,97615.06
2022-07-30T00:03:09.827Z,97615.94
2022-07-30T00:05:39.123Z,97610.94
2022-07-30T00:08:08.026Z,97616.84
2022-07-30T00:10:37.352Z,97617.25
2022-07-30T00:13:06.783Z,97619.47
2022-07-30T00:15:36.028Z,97626.44
2022-07-30T00:18:05.172Z,97634.78
2022-07-30T00:20:34.471Z,97628.69
2022-07-30T00:23:06.065Z,97634.41
2022-07-30T00:25:35.149Z,97641.88
2022-07-30T00:28:04.278Z,97639.72
2022-07-30T00:30:33.414Z,97645.25
2022-07-30T00:33:02.623Z,97650.50
2022-07-30T00:35:31.557Z,97646.41
2022-07-30T00:38:00.762Z,97648.47
2022-07-30T00:40:30.393Z,97633.97
2022-07-30T00:42:59.563Z,97646.72
2022-07-30T00:45:28.772Z,97647.13
2022-07-30T00:47:59.881Z,97649.13
2022-07-30T00:50:29.049Z,97652.63
2022-07-30T00:52:57.881Z,97658.41
2022-07-30T00:55:27.152Z,97665.25
2022-07-30T00:57:56.388Z,97668.44
2022-07-30T01:00:26.358Z,97670.84
2022-07-30T01:02:55.924Z,97666.66
2022-07-30T01:05:25.345Z,97674.69
2022-07-30T01:07:54.434Z,97674.19
2022-07-30T01:10:23.668Z,97677.25
2022-07-30T01:12:55.589Z,97681.53
2022-07-30T01:15:24.895Z,97681.28
2022-07-30T01:18:01.371Z,97688.41
2022-07-30T01:20:44.502Z,97684.56
2022-07-30T01:23:29.262Z,97688.69
2022-07-30T01:26:11.374Z,97682.13
2022-07-30T01:28:48.085Z,97681.66
2022-07-30T01:31:18.755Z,97693.41
2022-07-30T01:33:51.240Z,97691.91
2022-07-30T01:36:24.702Z,97677.94
2022-07-30T01:38:55.836Z,97680.69
2022-07-30T01:41:26.314Z,97680.38
2022-07-30T01:43:56.049Z,97696.25
2022-07-30T01:46:26.827Z,97694.09
2022-07-30T01:48:59.561Z,97699.03
2022-07-30T01:51:37.417Z,97699.63
2022-07-30T01:54:11.092Z,97702.56
2022-07-30T01:56:42.355Z,97709.59
2022-07-30T01:59:13.055Z,97714.16
2022-07-30T02:01:42.945Z,97713.66
2022-07-30T02:04:12.304Z,97718.88
2022-07-30T02:06:47.720Z,97711.09
2022-07-30T02:09:24.498Z,97709.66
2022-07-30T02:12:14.831Z,97717.09
2022-07-30T02:15:01.878Z,97717.94
2022-07-30T02:17:39.797Z,97723.22
2022-07-30T02:20:15.022Z,97717.81
2022-07-30T02:22:48.429Z,97715.53
2022-07-30T02:25:21.828Z,97711.41
2022-07-30T02:27:59.473Z,97714.25
2022-07-30T02:30:32.748Z,97705.41
2022-07-30T02:33:11.788Z,97709.28
2022-07-30T02:35:42.681Z,97705.13
2022-07-30T02:38:14.884Z,97703.34
2022-07-30T02:40:45.794Z,97706.00
2022-07-30T02:43:17.605Z,97702.13
2022-07-30T02:45:49.507Z,97705.09
2022-07-30T02:48:34.641Z,97701.53
2022-07-30T02:51:07.094Z,97696.81
2022-07-30T02:53:38.741Z,97697.16
2022-07-30T02:56:09.519Z,97696.88
2022-07-30T02:58:40.610Z,97701.97
2022-07-30T03:01:11.528Z,97696.03
2022-07-30T03:03:44.092Z,97694.13
2022-07-30T03:06:14.968Z,97695.88
2022-07-30T03:08:46.301Z,97693.09
2022-07-30T03:11:19.077Z,97695.22
2022-07-30T03:13:49.298Z,97698.94
2022-07-30T03:16:21.264Z,97688.91
2022-07-30T03:18:51.217Z,97698.53
2022-07-30T03:21:24.136Z,97693.38
2022-07-30T03:23:58.035Z,97700.06
2022-07-30T03:26:28.727Z,97702.59
2022-07-30T03:28:58.638Z,97705.63
2022-07-30T03:31:28.411Z,97717.03
2022-07-30T03:34:06.439Z,97713.94
2022-07-30T03:36:36.941Z,97720.66
2022-07-30T03:39:08.463Z,97718.94
2022-07-30T03:41:41.669Z,97725.63
2022-07-30T03:44:16.409Z,97725.94
2022-07-30T03:46:46.916Z,97723.44
2022-07-30T03:49:16.508Z,97715.91
2022-07-30T03:51:50.853Z,97717.97
2022-07-30T03:54:20.774Z,97725.59
2022-07-30T03:57:22.516Z,97723.97
2022-07-30T03:59:52.729Z,97721.94
2022-07-30T04:02:23.683Z,97725.19
2022-07-30T04:04:56.545Z,97728.59
2022-07-30T04:07:26.269Z,97728.59
2022-07-30T04:09:55.519Z,97722.63
2022-07-30T04:12:53.787Z,97719.69
2022-07-30T04:16:05.458Z,97727.75
2022-07-30T04:18:17.152Z,97736.25
2022-07-30T04:20:49.897Z,97730.91
2022-07-30T04:23:21.251Z,97725.94
2022-07-30T04:25:52.687Z,97723.06
2022-07-30T04:28:22.972Z,97720.13
2022-07-30T04:30:52.118Z,97718.66
2022-07-30T04:33:21.177Z,97720.28
2022-07-30T04:36:19.859Z,97726.09
2022-07-30T04:38:49.041Z,97725.13
2022-07-30T04:41:18.009Z,97725.03
2022-07-30T04:44:13.091Z,97729.38
2022-07-30T04:46:51.434Z,97736.88
2022-07-30T04:49:23.590Z,97730.22
2022-07-30T04:51:53.377Z,97734.34
2022-07-30T04:54:23.994Z,97735.13
2022-07-30T04:56:56.824Z,97735.47
2022-07-30T04:59:26.878Z,97736.97
2022-07-30T05:01:58.882Z,97749.13
2022-07-30T05:04:29.336Z,97735.19
2022-07-30T05:07:00.555Z,97751.28
2022-07-30T05:09:33.279Z,97757.50
2022-07-30T05:12:03.575Z,97746.88
2022-07-30T05:14:33.267Z,97747.97
2022-07-30T05:17:03.513Z,97744.41
2022-07-30T05:19:34.010Z,97745.47
2022-07-30T05:22:06.556Z,97746.06
2022-07-30T05:24:36.790Z,97744.91
2022-07-30T05:27:06.310Z,97743.44
2022-07-30T05:29:35.387Z,97747.28
2022-07-30T05:32:13.376Z,97748.47
2022-07-30T05:34:44.938Z,97746.41
2022-07-30T05:37:19.761Z,97743.00
2022-07-30T05:39:58.772Z,97750.66
2022-07-30T05:42:38.572Z,97744.16
2022-07-30T05:45:10.830Z,97745.50
2022-07-30T05:47:41.441Z,97745.28
2022-07-30T05:50:11.149Z,97749.84
2022-07-30T05:52:40.104Z,97745.03
2022-07-30T05:55:29.573Z,97753.72
2022-07-30T05:58:12.905Z,97759.63
2022-07-30T06:00:42.620Z,97757.59
2022-07-30T06:03:12.975Z,97756.75
2022-07-30T06:06:05.081Z,97756.56
2022-07-30T06:08:35.172Z,97751.38
2022-07-30T06:11:04.488Z,97757.84
2022-07-30T06:13:36.753Z,97757.13
2022-07-30T06:16:06.809Z,97765.00
2022-07-30T06:18:40.043Z,97752.72
2022-07-30T06:21:17.186Z,97761.56
2022-07-30T06:24:06.915Z,97756.75
2022-07-30T06:26:42.631Z,97761.50
2022-07-30T06:29:13.391Z,97753.25
2022-07-30T06:31:43.438Z,97759.94
2022-07-30T06:34:14.657Z,97755.13
2022-07-30T06:36:45.154Z,97751.38
2022-07-30T06:39:55.955Z,97751.06
2022-07-30T06:42:31.161Z,97742.00
2022-07-30T06:45:22.739Z,97746.69
2022-07-30T06:48:11.903Z,97738.09
2022-07-30T06:50:44.063Z,97733.78
2022-07-30T06:53:13.797Z,97727.78
2022-07-30T06:56:02.471Z,97723.47
2022-07-30T06:58:41.287Z,97720.09
2022-07-30T07:01:28.933Z,97715.66
2022-07-30T07:03:59.541Z,97712.13
2022-07-30T07:06:28.805Z,97712.91
2022-07-30T07:08:57.959Z,97697.47
2022-07-30T07:11:36.194Z,97690.19
2022-07-30T07:14:10.339Z,97682.94
2022-07-30T07:16:39.891Z,97686.09
2022-07-30T07:20:00.217Z,97679.31
2022-07-30T07:22:26.041Z,97678.44
2022-07-30T07:24:55.671Z,97662.53
2022-07-30T07:27:28.625Z,97658.09
2022-07-30T07:30:05.758Z,97657.91
2022-07-30T07:32:38.995Z,97654.94
2022-07-30T07:35:10.298Z,97664.91
2022-07-30T07:37:43.101Z,97647.44
2022-07-30T07:40:20.464Z,97639.63
2022-07-30T07:42:49.452Z,97639.94
2022-07-30T07:45:21.563Z,97640.09
2022-07-30T07:47:59.683Z,97632.53
2022-07-30T07:50:59.765Z,97629.97
2022-07-30T07:53:33.148Z,97627.50
2022-07-30T07:56:02.213Z,97629.94
2022-07-30T07:58:31.958Z,97638.34
2022-07-30T08:01:03.341Z,97632.88
2022-07-30T08:03:52.867Z,97625.25
2022-07-30T08:06:54.119Z,97612.28
2022-07-30T08:09:44.578Z,97612.47
2022-07-30T08:12:21.174Z,97606.44
2022-07-30T08:15:10.698Z,97598.81
2022-07-30T08:18:20.497Z,97580.50
2022-07-30T08:21:03.040Z,97578.72
2022-07-30T08:23:34.213Z,97572.91
2022-07-30T08:26:03.561Z,97568.72
2022-07-30T08:28:35.953Z,97567.69
2022-07-30T08:31:08.820Z,97561.72
2022-07-30T08:33:38.691Z,97558.41
2022-07-30T08:36:10.200Z,97556.72
2022-07-30T08:38:40.595Z,97564.34
2022-07-30T08:41:10.759Z,97571.78
2022-07-30T08:43:41.493Z,97564.47
2022-07-30T08:46:14.037Z,97558.81
2022-07-30T08:48:58.413Z,97562.81
2022-07-30T08:51:28.433Z,97545.84
2022-07-30T08:54:36.712Z,97542.22
2022-07-30T08:57:06.779Z,97539.53
2022-07-30T08:59:59.767Z,97530.91
2022-07-30T09:02:33.041Z,97522.22
2022-07-30T09:05:07.138Z,97526.75
2022-07-30T09:07:37.399Z,97522.09
2022-07-30T09:10:11.306Z,97508.28
2022-07-30T09:12:46.515Z,97499.47
2022-07-30T09:15:18.348Z,97497.50
2022-07-30T09:17:53.851Z,97503.97
2022-07-30T09:20:29.206Z,97494.03
2022-07-30T09:23:02.311Z,97492.50
2022-07-30T09:25:45.996Z,97498.81
2022-07-30T09:28:36.524Z,97487.03
2022-07-30T09:32:05.242Z,97479.38
2022-07-30T09:34:53.228Z,97466.09
2022-07-30T09:37:41.420Z,97458.28
2022-07-30T09:40:32.239Z,97453.63
2022-07-30T09:43:23.275Z,97450.16
2022-07-30T09:46:01.789Z,97444.19
2022-07-30T09:48:31.063Z,97447.00
2022-07-30T09:51:00.492Z,97438.19
2022-07-30T09:53:30.950Z,97436.81
2022-07-30T09:56:00.997Z,97433.19
2022-07-30T09:58:46.187Z,97435.16
2022-07-30T10:01:16.989Z,97426.41
2022-07-30T10:04:34.472Z,97419.78
2022-07-30T10:07:25.525Z,97414.94
2022-07-30T10:10:02.068Z,97403.16
2022-07-30T10:12:38.975Z,97400.00
2022-07-30T10:15:13.445Z,97400.00
2022-07-30T10:17:43.796Z,97390.53
2022-07-30T10:20:22.875Z,97393.00
2022-07-30T10:23:15.881Z,97397.66
2022-07-30T10:26:04.477Z,97393.72
2022-07-30T10:28:53.762Z,97397.63
2022-07-30T10:31:49.490Z,97403.78
2022-07-30T10:34:13.479Z,97396.97
2022-07-30T10:36:49.001Z,97392.31
2022-07-30T10:39:34.631Z,97393.63
2022-07-30T10:42:29.677Z,97383.00
2022-07-30T10:45:29.641Z,97379.69
2022-07-30T10:47:59.769Z,97374.41
2022-07-30T10:50:30.322Z,97357.91
2022-07-30T10:53:05.214Z,97359.06
2022-07-30T10:55:39.174Z,97356.06
2022-07-30T10:58:15.505Z,97355.97
2022-07-30T11:01:05.294Z,97353.22
2022-07-30T11:04:20.527Z,97345.34
2022-07-30T11:06:50.915Z,97341.94
2022-07-30T11:09:41.836Z,97336.06
2022-07-30T11:12:12.962Z,97339.50
2022-07-30T11:14:48.520Z,97335.16
2022-07-30T11:17:19.831Z,97344.66
2022-07-30T11:20:11.682Z,97350.44
2022-07-30T11:22:42.420Z,97350.47
2022-07-30T11:25:51.209Z,97349.34
2022-07-30T11:28:41.710Z,97345.50
2022-07-30T11:31:54.963Z,97350.28
2022-07-30T11:34:25.772Z,97349.69
2022-07-30T11:37:18.621Z,97353.50
2022-07-30T11:39:57.815Z,97342.88
2022-07-30T11:42:30.076Z,97345.38
2022-07-30T11:45:17.818Z,97332.22
2022-07-30T11:47:49.513Z,97334.91
2022-07-30T11:50:36.067Z,97334.56
2022-07-30T11:53:11.762Z,97343.22
2022-07-30T11:55:44.971Z,97333.59
2022-07-30T11:58:34.524Z,97337.19
2022-07-30T12:01:09.025Z,97333.59
2022-07-30T12:03:42.855Z,97334.22
2022-07-30T12:06:19.007Z,97326.94
2022-07-30T12:08:57.881Z,97332.44
2022-07-30T12:11:34.099Z,97335.56
2022-07-30T12:14:03.877Z,97331.75
2022-07-30T12:16:34.155Z,97331.59
2022-07-30T12:19:05.577Z,97323.63
2022-07-30T12:21:35.277Z,97312.13
2022-07-30T12:24:11.083Z,97309.00
2022-07-30T12:26:40.826Z,97308.00
2022-07-30T12:29:14.288Z,97298.06
2022-07-30T12:31:43.846Z,97284.78
2022-07-30T12:34:27.279Z,97285.09
2022-07-30T12:36:56.474Z,97280.31
2022-07-30T12:39:28.752Z,97282.63
2022-07-30T12:41:58.151Z,97289.25
2022-07-30T12:44:38.880Z,97284.78
2022-07-30T12:47:21.688Z,97288.94
2022-07-30T12:49:53.442Z,97297.72
2022-07-30T12:52:32.230Z,97295.41
2022-07-30T12:55:10.870Z,97310.50
2022-07-30T12:58:07.133Z,97312.34
2022-07-30T13:00:46.051Z,97317.50
2022-07-30T13:03:26.122Z,97325.78
2022-07-30T13:05:59.042Z,97338.50
2022-07-30T13:08:47.391Z,97347.63
2022-07-30T13:11:17.360Z,97347.47
2022-07-30T13:13:46.959Z,97348.75
2022-07-30T13:16:16.509Z,97343.63
2022-07-30T13:18:46.084Z,97354.63
2022-07-30T13:21:16.133Z,97351.63
2022-07-30T13:23:45.186Z,97358.53
2022-07-30T13:26:14.774Z,97360.13
2022-07-30T13:28:44.256Z,97365.59
2022-07-30T13:31:14.263Z,97356.97
2022-07-30T13:33:43.532Z,97358.72
2022-07-30T13:36:13.255Z,97360.34
2022-07-30T13:38:42.716Z,97363.56
2022-07-30T13:41:12.531Z,97362.47
2022-07-30T13:43:41.647Z,97365.69
2022-07-30T13:46:10.642Z,97367.38
2022-07-30T13:48:40.438Z,97367.59
2022-07-30T13:51:09.472Z,97369.13
2022-07-30T13:53:38.806Z,97354.03
2022-07-30T13:56:12.598Z,97351.34
2022-07-30T13:58:42.822Z,97351.03
2022-07-30T14:01:17.958Z,97353.22
2022-07-30T14:03:50.896Z,97345.16
2022-07-30T14:06:20.856Z,97342.66
2022-07-30T14:08:50.081Z,97339.41
2022-07-30T14:11:19.606Z,97349.09
2022-07-30T14:13:51.710Z,97346.16
2022-07-30T14:16:43.637Z,97352.44
2022-07-30T14:19:23.037Z,97357.13
2022-07-30T14:21:55.137Z,97368.38
2022-07-30T14:24:25.107Z,97373.25
2022-07-30T14:26:57.950Z,97375.53
2022-07-30T14:29:28.910Z,97367.28
2022-07-30T14:31:58.266Z,97369.25
2022-07-30T14:34:27.641Z,97370.41
2022-07-30T14:36:56.879Z,97375.41
2022-07-30T14:39:27.520Z,97380.16
2022-07-30T14:41:57.486Z,97391.69
2022-07-30T14:44:26.777Z,97386.28
2022-07-30T14:46:56.400Z,97379.97
2022-07-30T14:49:26.451Z,97385.66
2022-07-30T14:51:56.570Z,97392.28
2022-07-30T14:54:25.775Z,97400.22
2022-07-30T14:56:58.436Z,97393.97
2022-07-30T14:59:29.550Z,97390.94
2022-07-30T15:01:59.347Z,97385.19
2022-07-30T15:04:29.115Z,97393.56
2022-07-30T15:06:58.801Z,97394.09
2022-07-30T15:09:28.501Z,97381.94
2022-07-30T15:12:09.324Z,97378.75
2022-07-30T15:14:41.128Z,97390.94
2022-07-30T15:17:10.543Z,97403.41
2022-07-30T15:19:50.323Z,97408.63
2022-07-30T15:22:21.373Z,97412.63
2022-07-30T15:24:50.671Z,97423.44
2022-07-30T15:27:22.438Z,97429.34
2022-07-30T15:29:57.185Z,97437.53
2022-07-30T15:32:26.414Z,97437.38
2022-07-30T15:34:59.781Z,97433.53
2022-07-30T15:37:29.395Z,97434.50
2022-07-30T15:39:59.131Z,97442.50
2022-07-30T15:42:28.331Z,97436.84
2022-07-30T15:45:16.138Z,97438.81
2022-07-30T15:47:47.076Z,97441.84
2022-07-30T15:50:18.158Z,97425.19
2022-07-30T15:52:47.656Z,97437.66
2022-07-30T15:55:18.040Z,97446.75
2022-07-30T15:57:49.464Z,97451.34
2022-07-30T16:00:19.030Z,97443.03
2022-07-30T16:02:48.055Z,97448.38
2022-07-30T16:05:17.676Z,97449.81
2022-07-30T16:07:46.593Z,97449.22
2022-07-30T16:10:16.708Z,97453.03
2022-07-30T16:12:46.098Z,97448.69
2022-07-30T16:15:16.329Z,97441.06
2022-07-30T16:17:45.879Z,97449.47
2022-07-30T16:20:15.204Z,97435.25
2022-07-30T16:22:44.535Z,97439.72
2022-07-30T16:25:14.356Z,97441.66
2022-07-30T16:27:44.020Z,97447.06
2022-07-30T16:30:13.959Z,97447.25
2022-07-30T16:32:43.108Z,97449.41
2022-07-30T16:35:13.451Z,97452.66
2022-07-30T16:37:43.356Z,97457.44
2022-07-30T16:40:13.075Z,97467.56
2022-07-30T16:42:42.215Z,97461.06
2022-07-30T16:45:11.688Z,97463.59
2022-07-30T16:47:40.958Z,97450.81
2022-07-30T16:50:10.912Z,97462.91
2022-07-30T16:52:40.042Z,97457.81
2022-07-30T16:55:10.647Z,97469.94
2022-07-30T16:57:39.678Z,97470.81
2022-07-30T17:00:10.127Z,97479.81
2022-07-30T17:02:39.688Z,97478.59
2022-07-30T17:05:13.321Z,97474.44
2022-07-30T17:07:43.268Z,97469.19
2022-07-30T17:10:13.318Z,97465.03
2022-07-30T17:12:51.057Z,97473.91
2022-07-30T17:15:20.662Z,97482.78
2022-07-30T17:18:05.255Z,97495.84
2022-07-30T17:20:35.458Z,97486.44
2022-07-30T17:23:05.689Z,97486.97
2022-07-30T17:25:35.264Z,97482.78
2022-07-30T17:28:04.855Z,97476.28
2022-07-30T17:30:34.552Z,97474.75
2022-07-30T17:33:05.987Z,97472.38
2022-07-30T17:35:35.584Z,97470.03
2022-07-30T17:38:05.104Z,97457.53
2022-07-30T17:40:34.380Z,97460.41
2022-07-30T17:43:08.542Z,97464.47
2022-07-30T17:45:38.448Z,97465.44
2022-07-30T17:48:09.400Z,97458.91
2022-07-30T17:50:39.106Z,97453.09
2022-07-30T17:53:08.452Z,97459.34
2022-07-30T17:55:38.288Z,97470.00
2022-07-30T17:58:07.915Z,97458.91
2022-07-30T18:00:37.511Z,97459.47
2022-07-30T18:03:06.797Z,97454.47
2022-07-30T18:05:36.229Z,97463.06
2022-07-30T18:08:05.551Z,97453.91
2022-07-30T18:10:35.005Z,97449.47
2022-07-30T18:13:25.939Z,97455.88
2022-07-30T18:15:54.123Z,97454.75
2022-07-30T18:18:23.225Z,97457.81
2022-07-30T18:20:52.483Z,97460.34
2022-07-30T18:23:21.688Z,97452.28
2022-07-30T18:25:54.463Z,97455.63
2022-07-30T18:28:24.904Z,97458.25
2022-07-30T18:30:56.005Z,97456.16
2022-07-30T18:33:25.821Z,97439.19
2022-07-30T18:35:55.186Z,97436.56
2022-07-30T18:38:24.619Z,97430.00
2022-07-30T18:41:00.112Z,97428.75
2022-07-30T18:43:29.999Z,97423.09
2022-07-30T18:46:01.261Z,97424.91
2022-07-30T18:48:30.693Z,97428.09
2022-07-30T18:50:59.692Z,97428.66
2022-07-30T18:53:29.737Z,97430.00
2022-07-30T18:55:59.086Z,97434.22
2022-07-30T18:58:28.231Z,97419.63
2022-07-30T19:00:57.491Z,97429.50
2022-07-30T19:03:26.449Z,97427.91
2022-07-30T19:05:55.638Z,97435.75
2022-07-30T19:08:24.550Z,97426.41
2022-07-30T19:10:53.996Z,97421.94
2022-07-30T19:13:25.083Z,97409.44
2022-07-30T19:15:54.374Z,97407.66
2022-07-30T19:18:23.624Z,97410.00
2022-07-30T19:20:53.063Z,97411.66
2022-07-30T19:23:22.377Z,97410.81
2022-07-30T19:25:52.217Z,97412.78
2022-07-30T19:28:21.547Z,97411.00
2022-07-30T19:30:51.099Z,97396.94
2022-07-30T19:33:21.527Z,97399.44
2022-07-30T19:35:51.467Z,97399.44
2022-07-30T19:38:22.027Z,97389.75
2022-07-30T19:40:53.261Z,97393.59
2022-07-30T19:43:24.639Z,97393.25
2022-07-30T19:45:54.478Z,97402.53
2022-07-30T19:48:31.789Z,97401.41
2022-07-30T19:51:02.462Z,97401.56
2022-07-30T19:53:34.779Z,97397.28
2022-07-30T19:56:08.367Z,97401.16
2022-07-30T19:58:40.785Z,97405.47
2022-07-30T20:01:12.106Z,97405.72
2022-07-30T20:03:42.066Z,97395.72
2022-07-30T20:06:18.146Z,97398.38
2022-07-30T20:08:47.259Z,97403.06
2022-07-30T20:11:34.783Z,97389.88
2022-07-30T20:14:06.417Z,97372.53
2022-07-30T20:16:36.557Z,97375.00
2022-07-30T20:19:06.250Z,97367.41
2022-07-30T20:21:56.324Z,97365.03
2022-07-30T20:24:26.689Z,97358.38
2022-07-30T20:26:55.807Z,97356.00
2022-07-30T20:29:25.571Z,97352.94
2022-07-30T20:31:56.059Z,97350.75
2022-07-30T20:34:25.925Z,97347.13
2022-07-30T20:36:56.928Z,97348.91
2022-07-30T20:39:26.972Z,97339.19
2022-07-30T20:42:14.888Z,97333.94
2022-07-30T20:44:49.521Z,97331.97
2022-07-30T20:47:37.494Z,97321.97
2022-07-30T20:50:10.856Z,97319.19
2022-07-30T20:52:46.703Z,97307.53
2022-07-30T20:55:18.724Z,97301.69
2022-07-30T20:57:57.141Z,97298.91
2022-07-30T21:00:32.994Z,97299.47
2022-07-30T21:03:03.401Z,97292.28
2022-07-30T21:05:33.376Z,97289.75
2022-07-30T21:08:02.739Z,97281.16
2022-07-30T21:10:33.636Z,97275.75
2022-07-30T21:13:07.638Z,97269.50
2022-07-30T21:15:45.538Z,97252.84
2022-07-30T21:18:26.590Z,97249.81
2022-07-30T21:20:56.853Z,97252.56
2022-07-30T21:23:28.104Z,97253.69
2022-07-30T21:26:02.796Z,97252.84
2022-07-30T21:28:35.636Z,97249.16
2022-07-30T21:31:06.957Z,97253.28
2022-07-30T21:33:38.705Z,97253.72
2022-07-30T21:38:57.553Z,97245.09
2022-07-30T21:41:40.433Z,97250.38
2022-07-30T21:44:10.664Z,97251.22
2022-07-30T21:46:41.866Z,97253.72
2022-07-30T21:49:11.691Z,97248.16
2022-07-30T21:51:41.073Z,97253.13
2022-07-30T21:54:17.051Z,97256.22
2022-07-30T21:56:56.467Z,97257.28
2022-07-30T21:59:28.636Z,97257.56
2022-07-30T22:01:57.930Z,97244.94
2022-07-30T22:04:27.403Z,97246.63
2022-07-30T22:06:56.625Z,97251.06
2022-07-30T22:09:34.276Z,97244.94
2022-07-30T22:12:09.062Z,97245.22
2022-07-30T22:14:41.866Z,97237.88
2022-07-30T22:17:22.531Z,97243.13
2022-07-30T22:19:55.549Z,97242.84
2022-07-30T22:22:26.602Z,97251.34
2022-07-30T22:24:59.910Z,97246.31
2022-07-30T22:27:39.527Z,97249.13
2022-07-30T22:30:13.762Z,97237.31
2022-07-30T22:32:43.860Z,97249.25
2022-07-30T22:35:16.223Z,97255.38
2022-07-30T22:37:46.747Z,97240.66
2022-07-30T22:40:17.011Z,97241.50
2022-07-30T22:42:49.622Z,97239.56
2022-07-30T22:45:34.108Z,97244.13
2022-07-30T22:48:10.818Z,97239.56
2022-07-30T22:50:41.288Z,97235.75
2022-07-30T22:53:23.612Z,97251.31
2022-07-30T22:56:00.039Z,97255.22
2022-07-30T22:58:30.052Z,97256.19
2022-07-30T23:00:59.149Z,97262.44
2022-07-30T23:03:28.572Z,97267.03
2022-07-30T23:05:57.790Z,97268.28
2022-07-30T23:08:29.615Z,97264.81
2022-07-30T23:11:02.996Z,97276.88
2022-07-30T23:12:32.056Z,97248.69
2022-07-30T23:13:32.259Z,97279.22
2022-07-30T23:16:01.267Z,97279.94
2022-07-30T23:18:30.430Z,97270.06
2022-07-30T23:21:00.530Z,97272.00
2022-07-30T23:23:34.329Z,97276.06
2022-07-30T23:26:07.480Z,97275.78
2022-07-30T23:28:37.915Z,97280.59
2022-07-30T23:31:07.249Z,97277.28
2022-07-30T23:33:36.324Z,97279.22
2022-07-30T23:36:09.869Z,97282.56
2022-07-30T23:38:39.081Z,97294.91
2022-07-30T23:41:08.307Z,97301.44
2022-07-30T23:43:38.820Z,97292.97
2022-07-30T23:46:09.559Z,97295.06
2022-07-30T23:48:40.626Z,97294.38
2022-07-30T23:51:09.545Z,97290.59
2022-07-30T23:53:39.079Z,97290.88
2022-07-30T23:56:08.965Z,97288.97
2022-07-30T23:58:40.640Z,97284.78
